AirNav   TITAN Aviation Fuels
 
 500 users online  

9NC7 Willow Creek Airport
Mount Pleasant, North Carolina, USA

GOING TO MOUNT PLEASANT?


FAA INFORMATION EFFECTIVE 03 NOVEMBER 2022

Location

FAA Identifier: 9NC7
Lat/Long: 35-22-11.0000N 080-26-24.0000W
35-22.183333N 080-26.400000W
35.3697222,-80.4400000
(estimated)
Elevation: 572 ft. / 174 m (estimated)
From city: 2 miles N of MT PLEASANT, NC
Time zone: UTC -5 (UTC -4 during Daylight Saving Time)
Zip code: 28124

Airport Operations

Airport use: Private use. Permission required prior to landing
Activation date: 12/2004
Control tower: no
ARTCC: ATLANTA CENTER
FSS: RALEIGH FLIGHT SERVICE STATION
Attendance: UNATNDD
Segmented circle: no

Airport Communications

WX AWOS-3 at JQF (13 nm W): 133.675 (704-785-2145)
WX AWOS-3 at VUJ (14 nm E): 128.175 (704-986-2097)
WX AWOS-3 at RUQ (17 nm N): 118.175 (704-637-6197)

Nearby radio navigation aids

VOR radial/distance  VOR name  Freq  Var
CLTr072/27.3CHARLOTTE VOR/DME115.0005W

 
NDB name  Hdg/Dist  Freq  Var  ID
STONIA079/36.826006WGHJ --. .... .---

Airport Services

Runway Information

Runway 12/30

Dimensions: 2300 x 80 ft. / 701 x 24 m
Surface: turf
RUNWAY 12  RUNWAY 30
Traffic pattern: leftleft

Airport Ownership and Management from official FAA records

Ownership: Privately-owned
Owner: CHRIS TAYLOR
3525 WILLOW CREEK DR.
MT PLEASANT, NC 28124-0308
Phone (980) 622-8841
Manager: CHRIS TAYLOR
3525 WILLOW CREEK DR.
MT PLEASANT, NC 28124-0308
Phone (980) 622-8841

Additional Remarks

95 FT TWR, 1000 FT S OF MIDFIELD.
FOR CD CTC CHARLOTTE APCH AT 704-359-0241.

Instrument Procedures

There are no published instrument procedures at 9NC7.

Some nearby airports with instrument procedures:

KJQF - Concord-Padgett Regional Airport (13 nm W)
KVUJ - Stanly County Airport (14 nm E)
KRUQ - Mid-Carolina Regional Airport (17 nm N)
KEQY - Charlotte-Monroe Executive Airport (23 nm SW)
KEXX - Davidson County Airport (26 nm N)
 
Loc | Ops | Rwys | IFR | FBO | Links
Com | Nav | Svcs | Stats | Notes
Area around 9NC7 (Willow Creek Airport)
 
Road maps at: MapQuest Bing Google
 
Aerial photo
No photo
 
Sectional chart

 
Airport distance calculator
Flying to Willow Creek Airport? Find the distance to fly.

From to 9NC7

Sunrise and sunset
Times for 28-Nov-2022
 Local
(UTC-5)
 Zulu
(UTC)
Morning civil twilight06:4311:43
Sunrise07:1112:11
Sunset17:0922:09
Evening civil twilight17:3722:37

Current date and time
Zulu (UTC)  28-Nov-2022 11:07:22
Local (UTC-5)  28-Nov-2022 06:07:22
 
METAR
KJQF 
14nm W 
281055Z AUTO 00000KT 10SM CLR 08/06 A2984 RMK AO2
KVUJ 
14nm E 
281055Z AUTO 00000KT 10SM CLR 07/06 A2986 RMK AO2 T00740057
KRUQ 
17nm N 
281055Z AUTO 00000KT 10SM CLR 07/05 A2980 RMK AO2 T00720045
KEQY 
23nm S 
281053Z AUTO 24005KT 10SM CLR 09/06 A2982 RMK AO2 SLP105 T00940061
KEXX 
26nm N 
281055Z AUTO 00000KT 10SM CLR 07/07 A2981 RMK AO2 T00710071
KCLT 
27nm W 
281052Z 00000KT 10SM CLR 08/06 A2982 RMK SLP095 T00830061 $
TAF
KCLT 
27nm W 
280950Z 2810/2912 25005KT P6SM SKC FM281600 28007KT P6SM SCT028 FM290500 05003KT P6SM FEW250
NOTAMs
Click for the latest NOTAMs
NOTAMs are issued by the DoD/FAA and will open in a separate window not controlled by AirNav.

 

 
 

Would you like to see your business listed on this page?

 If your business provides an interesting product or service to pilots, flight crews, aircraft, or users of the Willow Creek Airport, you should consider listing it here.  To start the listing process, click on the button below
 
Add a business
 

Other Pages about Willow Creek Airport

Update a link
 
Copyright © AirNav, LLC. All rights reserved. Privacy Policy  Contact